Kakushu Maru — JG5688 — position and weather

sailwx.info

Track history (hours):
 
Tides and Currents Weather Stations Pressure Air Temp Water Temp Dewpoint Dewpoint Depression Visibility Wind Speed Wind Dir Waves Ship Positions

Kakushu Maru

Last reported at 2015-Mar-30 02:33 UTC. Time now 2015-Mar-30 04:28 UTC.
Position N 35°59' E 140°43'.

Length 105 m; draft 4.7 m.

Type: Tanker. MMSI: 431101016.

Date/timePositionNaut miles runAvg speedWind from/ knotsBaromVisibWave heightAir tempDewpointWater temp
2015-Mar-30 02:33N 35°59' E 140°43'4 4.0
2015-Mar-30 01:28N 35°55' E 140°41'5 2.6
2015-Mar-29 23:29N 35°60' E 140°43'0 0.1
2015-Mar-29 22:29N 35°60' E 140°43'0 0.1
2015-Mar-29 21:26N 35°60' E 140°43'0 0.0
2015-Mar-29 20:17N 35°60' E 140°43'0 0.0
2015-Mar-29 19:29N 35°60' E 140°43'0 0.0
2015-Mar-29 18:29N 35°60' E 140°43'0 0.0
2015-Mar-29 17:29N 35°60' E 140°43'0 0.0
2015-Mar-29 16:29N 35°60' E 140°43'0 0.0
2015-Mar-29 15:05N 35°60' E 140°43'0 0.0
2015-Mar-29 10:17N 35°60' E 140°43'1 1.4
2015-Mar-29 09:33N 36°01' E 140°44'1613.4
2015-Mar-29 08:22N 36°16' E 140°50'  
2015-Mar-26 12:11N 36°03' E 140°44'812.1
2015-Mar-26 11:31N 35°55' E 140°41'1 0.1
2015-Mar-26 03:28N 35°55' E 140°41'4 4.8
2015-Mar-26 02:33N 35°55' E 140°46'1512.3
2015-Mar-26 01:21N 35°43' E 140°56'1311.7
2015-Mar-26 00:13N 35°31' E 140°49'912.1
2015-Mar-25 23:30N 35°24' E 140°43'1212.3
2015-Mar-25 22:32N 35°14' E 140°35'1212.4
2015-Mar-25 21:33N 35°05' E 140°25'1414.0
2015-Mar-25 20:33N 34°57' E 140°11'1514.5
2015-Mar-25 19:32N 34°49' E 139°56'1614.1
2015-Mar-25 18:26N 34°42' E 139°39'5514.0
2015-Mar-25 14:32N 34°31' E 138°34'  
2015-Mar-23 10:12N 34°54' E 139°26'913.3
2015-Mar-23 09:33N 34°60' E 139°33'1414.2
2015-Mar-23 08:34N 35°10' E 139°45'1212.0
2015-Mar-23 07:34N 35°22' E 139°42'9 8.0
2015-Mar-23 06:24N 35°31' E 139°46'0 0.0
2015-Mar-23 05:18N 35°31' E 139°46'0 0.0
2015-Mar-23 03:21N 35°31' E 139°46'0 0.0
2015-Mar-23 02:27N 35°31' E 139°46'4 4.6
2015-Mar-23 01:34N 35°29' E 139°42'6 6.0
2015-Mar-23 00:31N 35°23' E 139°44'0 0.0
2015-Mar-22 23:31N 35°23' E 139°44'0 0.0
2015-Mar-22 22:31N 35°23' E 139°44'0 0.0
2015-Mar-22 21:31N 35°23' E 139°44'0 0.0
2015-Mar-22 20:31N 35°23' E 139°44'0 0.0
2015-Mar-22 19:31N 35°23' E 139°44'0 0.1
2015-Mar-22 18:31N 35°23' E 139°44'0 0.0
2015-Mar-22 17:31N 35°23' E 139°44'0 0.0
2015-Mar-22 16:31N 35°23' E 139°44'0 0.1
2015-Mar-22 15:31N 35°23' E 139°44'0 0.0
2015-Mar-22 14:31N 35°23' E 139°44'0 0.0
2015-Mar-22 13:31N 35°23' E 139°44'0 0.0
2015-Mar-22 12:28N 35°23' E 139°44'0 0.0
2015-Mar-22 11:31N 35°23' E 139°44'0 0.1
2015-Mar-22 10:31N 35°23' E 139°44'0 0.0
2015-Mar-22 09:31N 35°23' E 139°44'3 3.4
2015-Mar-22 08:34N 35°20' E 139°43'1212.1
2015-Mar-22 07:33N 35°08' E 139°44'1514.6
2015-Mar-22 06:33N 34°58' E 139°31'231 5.7
2015-Mar-20 14:19N 34°01' E 134°59'1215.1
2015-Mar-20 13:33N 34°12' E 134°59'1312.5
2015-Mar-20 12:33N 34°24' E 135°04'1514.9
2015-Mar-20 11:33N 34°31' E 135°19'  
Track history (hours):
 
Tides and Currents Weather Stations Pressure Air Temp Water Temp Dewpoint Dewpoint Depression Visibility Wind Speed Wind Dir Waves Ship Positions

Kakushu Maru

Last reported at 2015-Mar-30 02:33 UTC. Time now 2015-Mar-30 04:28 UTC.
Position N 35°59' E 140°43'.

Length 105 m; draft 4.7 m.

Type: Tanker. MMSI: 431101016.

Date/timePositionNaut miles runAvg speedWind from/ knotsBaromVisibWave heightAir tempDewpointWater temp
2015-Mar-30 02:33N 35°59' E 140°43'4 4.0
2015-Mar-30 01:28N 35°55' E 140°41'5 2.6
2015-Mar-29 23:29N 35°60' E 140°43'0 0.1
2015-Mar-29 22:29N 35°60' E 140°43'0 0.1
2015-Mar-29 21:26N 35°60' E 140°43'0 0.0
2015-Mar-29 20:17N 35°60' E 140°43'0 0.0
2015-Mar-29 19:29N 35°60' E 140°43'0 0.0
2015-Mar-29 18:29N 35°60' E 140°43'0 0.0
2015-Mar-29 17:29N 35°60' E 140°43'0 0.0
2015-Mar-29 16:29N 35°60' E 140°43'0 0.0
2015-Mar-29 15:05N 35°60' E 140°43'0 0.0
2015-Mar-29 10:17N 35°60' E 140°43'1 1.4
2015-Mar-29 09:33N 36°01' E 140°44'1613.4
2015-Mar-29 08:22N 36°16' E 140°50'  
2015-Mar-26 12:11N 36°03' E 140°44'812.1
2015-Mar-26 11:31N 35°55' E 140°41'1 0.1
2015-Mar-26 03:28N 35°55' E 140°41'4 4.8
2015-Mar-26 02:33N 35°55' E 140°46'1512.3
2015-Mar-26 01:21N 35°43' E 140°56'1311.7
2015-Mar-26 00:13N 35°31' E 140°49'912.1
2015-Mar-25 23:30N 35°24' E 140°43'1212.3
2015-Mar-25 22:32N 35°14' E 140°35'1212.4
2015-Mar-25 21:33N 35°05' E 140°25'1414.0
2015-Mar-25 20:33N 34°57' E 140°11'1514.5
2015-Mar-25 19:32N 34°49' E 139°56'1614.1
2015-Mar-25 18:26N 34°42' E 139°39'5514.0
2015-Mar-25 14:32N 34°31' E 138°34'  
2015-Mar-23 10:12N 34°54' E 139°26'913.3
2015-Mar-23 09:33N 34°60' E 139°33'1414.2
2015-Mar-23 08:34N 35°10' E 139°45'1212.0
2015-Mar-23 07:34N 35°22' E 139°42'9 8.0
2015-Mar-23 06:24N 35°31' E 139°46'0 0.0
2015-Mar-23 05:18N 35°31' E 139°46'0 0.0
2015-Mar-23 03:21N 35°31' E 139°46'0 0.0
2015-Mar-23 02:27N 35°31' E 139°46'4 4.6
2015-Mar-23 01:34N 35°29' E 139°42'6 6.0
2015-Mar-23 00:31N 35°23' E 139°44'0 0.0
2015-Mar-22 23:31N 35°23' E 139°44'0 0.0
2015-Mar-22 22:31N 35°23' E 139°44'0 0.0
2015-Mar-22 21:31N 35°23' E 139°44'0 0.0
2015-Mar-22 20:31N 35°23' E 139°44'0 0.0
2015-Mar-22 19:31N 35°23' E 139°44'0 0.1
2015-Mar-22 18:31N 35°23' E 139°44'0 0.0
2015-Mar-22 17:31N 35°23' E 139°44'0 0.0
2015-Mar-22 16:31N 35°23' E 139°44'0 0.1
2015-Mar-22 15:31N 35°23' E 139°44'0 0.0
2015-Mar-22 14:31N 35°23' E 139°44'0 0.0
2015-Mar-22 13:31N 35°23' E 139°44'0 0.0
2015-Mar-22 12:28N 35°23' E 139°44'0 0.0
2015-Mar-22 11:31N 35°23' E 139°44'0 0.1
2015-Mar-22 10:31N 35°23' E 139°44'0 0.0
2015-Mar-22 09:31N 35°23' E 139°44'3 3.4
2015-Mar-22 08:34N 35°20' E 139°43'1212.1
2015-Mar-22 07:33N 35°08' E 139°44'1514.6
2015-Mar-22 06:33N 34°58' E 139°31'231 5.7
2015-Mar-20 14:19N 34°01' E 134°59'1215.1
2015-Mar-20 13:33N 34°12' E 134°59'1312.5
2015-Mar-20 12:33N 34°24' E 135°04'1514.9
2015-Mar-20 11:33N 34°31' E 135°19'  

Dump ship's entire track history